Time;durP1;ratioP1;P1;durP2;ratioP2;P2;SDS_P1;SDS_P2;PMS_P1;PMS_P2;Temp;Humidity;BMP_temperature;BMP_pressure;BME280_temperature;BME280_humidity;BME280_pressure;Samples;Min_cycle;Max_cycle;Signal;HPM_P1;HPM_P2
2024/02/04 00:01:17;;;;;;;20.95;7.93;;;13.10;51.60;;;;;;5023205;28;20041;-58
2024/02/04 00:03:46;;;;;;;22.70;8.88;;;13.10;51.60;;;;;;5027395;28;20475;-59
2024/02/04 00:06:14;;;;;;;24.08;8.65;;;13.00;51.50;;;;;;5022827;28;20048;-60
2024/02/04 00:08:43;;;;;;;31.70;8.73;;;13.00;51.70;;;;;;4984853;28;20068;-65
2024/02/04 00:11:13;;;;;;;21.40;7.75;;;12.90;51.80;;;;;;4985673;28;20056;-64
2024/02/04 00:13:42;;;;;;;19.65;8.90;;;12.90;51.80;;;;;;4989720;28;20061;-53
2024/02/04 00:16:11;;;;;;;16.30;7.20;;;12.90;51.80;;;;;;4986072;28;20159;-61
2024/02/04 00:18:39;;;;;;;22.77;8.20;;;12.90;51.90;;;;;;5018645;28;20052;-60
2024/02/04 00:21:08;;;;;;;19.40;8.55;;;12.90;51.90;;;;;;5008002;28;20297;-68
2024/02/04 00:23:37;;;;;;;19.67;8.00;;;12.90;51.90;;;;;;4992423;28;20063;-63
2024/02/04 00:26:05;;;;;;;35.38;8.57;;;12.80;52.00;;;;;;4982270;28;20701;-64
2024/02/04 00:28:35;;;;;;;19.35;7.90;;;12.90;52.00;;;;;;4991583;28;20841;-61
2024/02/04 00:31:04;;;;;;;25.10;8.07;;;12.90;52.00;;;;;;5007155;28;20049;-60
2024/02/04 00:33:33;;;;;;;22.65;7.72;;;13.00;52.10;;;;;;5022527;28;20048;-58
2024/02/04 00:36:03;;;;;;;14.60;6.75;;;13.00;52.10;;;;;;4982068;28;20381;-61
2024/02/04 00:38:31;;;;;;;20.05;7.50;;;13.00;52.10;;;;;;4999846;28;20706;-60
2024/02/04 00:41:00;;;;;;;17.65;7.45;;;13.00;52.10;;;;;;5002333;28;21396;-71
2024/02/04 00:43:29;;;;;;;18.55;7.25;;;13.10;52.10;;;;;;5009026;28;21014;-57
2024/02/04 00:46:00;;;;;;;19.67;6.82;;;13.10;52.10;;;;;;5019217;28;20102;-60
2024/02/04 00:48:28;;;;;;;15.88;7.43;;;13.10;52.30;;;;;;5002562;28;20071;-54
2024/02/04 00:50:57;;;;;;;17.05;7.70;;;13.20;52.10;;;;;;4985064;28;20056;-58
2024/02/04 00:53:33;;;;;;;14.43;6.65;;;13.20;52.00;;;;;;4925699;28;20410;-55
2024/02/04 00:56:03;;;;;;;15.60;6.82;;;13.30;52.10;;;;;;4924339;28;20059;-56
2024/02/04 00:58:32;;;;;;;16.02;6.45;;;13.30;51.90;;;;;;4932018;28;20115;-56
2024/02/04 01:01:02;;;;;;;14.23;6.95;;;13.30;51.90;;;;;;4947939;28;20210;-54
2024/02/04 01:03:31;;;;;;;13.85;6.05;;;13.30;51.90;;;;;;4954517;28;20168;-67
2024/02/04 01:06:01;;;;;;;18.45;7.13;;;13.30;51.90;;;;;;5032294;28;20061;-55
2024/02/04 01:08:30;;;;;;;21.05;8.25;;;13.30;52.00;;;;;;5023670;28;20252;-56
2024/02/04 01:10:58;;;;;;;20.05;6.53;;;13.20;52.00;;;;;;4991192;28;20048;-56
2024/02/04 01:13:28;;;;;;;19.38;6.43;;;13.30;52.20;;;;;;5022859;28;20158;-56
2024/02/04 01:15:57;;;;;;;14.77;6.55;;;13.20;52.10;;;;;;5039802;28;20065;-56
2024/02/04 01:18:26;;;;;;;12.45;6.22;;;13.20;52.20;;;;;;5025921;28;21974;-55
2024/02/04 01:20:55;;;;;;;15.70;6.88;;;13.20;52.30;;;;;;5038777;28;20045;-56
2024/02/04 01:23:23;;;;;;;13.10;6.57;;;13.20;52.40;;;;;;4998057;28;20053;-55
2024/02/04 01:25:51;;;;;;;12.32;5.82;;;13.20;52.50;;;;;;4983669;28;20053;-58
2024/02/04 01:28:20;;;;;;;10.27;5.05;;;13.30;52.40;;;;;;4983037;28;20267;-56
2024/02/04 01:30:49;;;;;;;15.95;5.75;;;13.30;52.60;;;;;;4992705;28;20057;-56
2024/02/04 01:33:17;;;;;;;11.75;5.45;;;13.30;52.40;;;;;;5028378;28;20118;-57
2024/02/04 01:35:47;;;;;;;14.35;6.50;;;13.30;52.40;;;;;;5030651;28;20624;-56
2024/02/04 01:38:16;;;;;;;11.10;5.70;;;13.30;52.50;;;;;;4991407;28;20129;-54
2024/02/04 01:40:46;;;;;;;13.18;5.32;;;13.30;52.60;;;;;;4992212;28;20661;-55
2024/02/04 01:43:14;;;;;;;9.82;5.13;;;13.30;52.60;;;;;;4993805;28;20139;-54
2024/02/04 01:45:43;;;;;;;8.75;5.20;;;13.30;52.60;;;;;;5024529;28;20060;-58
2024/02/04 01:48:13;;;;;;;11.63;4.63;;;13.30;52.60;;;;;;5018932;28;20061;-55
2024/02/04 01:50:43;;;;;;;8.18;4.40;;;13.30;52.70;;;;;;4993739;28;20341;-56
2024/02/04 01:53:15;;;;;;;10.05;4.15;;;13.30;52.60;;;;;;4967131;28;20052;-54
2024/02/04 01:55:44;;;;;;;10.00;4.15;;;13.40;53.30;;;;;;4961509;28;20504;-56
2024/02/04 01:58:13;;;;;;;19.17;4.70;;;13.40;52.60;;;;;;4963478;28;20077;-55
2024/02/04 02:00:41;;;;;;;16.55;5.90;;;13.40;52.70;;;;;;5010261;28;20061;-61
2024/02/04 02:03:13;;;;;;;9.52;4.28;;;13.40;52.60;;;;;;5029991;28;20056;-55
2024/02/04 02:05:42;;;;;;;7.00;4.15;;;13.40;52.60;;;;;;5011725;28;20644;-54
2024/02/04 02:08:11;;;;;;;17.42;5.22;;;13.30;52.60;;;;;;5030787;28;20287;-54
2024/02/04 02:10:46;;;;;;;15.95;4.63;;;13.40;52.70;;;;;;5035568;28;20064;-54
2024/02/04 02:13:21;;;;;;;8.05;3.67;;;13.30;52.70;;;;;;5031332;28;20072;-56
2024/02/04 02:15:52;;;;;;;;;;;13.30;52.80;;;;;;5033542;28;20060;-55
2024/02/04 02:18:26;;;;;;;31.02;10.18;;;13.30;52.70;;;;;;5033086;28;20757;-56
2024/02/04 02:21:10;;;;;;;9.48;4.07;;;13.30;52.70;;;;;;4955927;28;20052;-54
2024/02/04 02:24:01;;;;;;;13.88;4.35;;;13.30;52.70;;;;;;4961519;28;20061;-58
2024/02/04 02:26:32;;;;;;;9.20;4.57;;;13.40;52.70;;;;;;5035465;28;20059;-65
2024/02/04 02:29:02;;;;;;;22.15;7.15;;;13.40;52.70;;;;;;5036509;28;20055;-56
2024/02/04 02:31:31;;;;;;;6.68;3.45;;;13.40;53.00;;;;;;5023276;28;20118;-57
2024/02/04 02:34:14;;;;;;;9.65;4.35;;;13.40;52.80;;;;;;5037107;28;20059;-56
2024/02/04 02:37:09;;;;;;;7.43;3.72;;;13.40;52.70;;;;;;5036896;28;20581;-56
2024/02/04 02:39:41;;;;;;;;;;;13.40;52.80;;;;;;5030714;28;20049;-56
2024/02/04 02:42:12;;;;;;;7.15;3.25;;;13.40;52.70;;;;;;5033183;28;20029;-55
2024/02/04 02:44:42;;;;;;;9.30;2.97;;;13.40;52.70;;;;;;5038940;28;20515;-54
2024/02/04 02:47:11;;;;;;;9.90;4.45;;;13.40;52.80;;;;;;5018974;28;20059;-56
2024/02/04 02:49:41;;;;;;;6.95;3.90;;;13.40;52.80;;;;;;5014117;28;20077;-56
2024/02/04 02:52:09;;;;;;;12.20;2.92;;;13.50;52.90;;;;;;5012321;28;20516;-56
2024/02/04 02:54:38;;;;;;;18.40;4.18;;;13.50;52.80;;;;;;5013937;28;20154;-56
2024/02/04 02:57:07;;;;;;;4.75;3.15;;;13.60;53.10;;;;;;5016529;28;20051;-56
2024/02/04 02:59:36;;;;;;;7.00;4.28;;;13.50;53.10;;;;;;5013759;28;20111;-57
2024/02/04 03:02:05;;;;;;;16.67;3.97;;;13.50;52.80;;;;;;5013472;28;20056;-57
2024/02/04 03:04:33;;;;;;;6.30;3.63;;;13.50;52.80;;;;;;5010298;28;20065;-57
2024/02/04 03:07:02;;;;;;;6.18;3.10;;;13.40;52.80;;;;;;5010852;28;20053;-70
2024/02/04 03:09:31;;;;;;;9.43;3.63;;;13.40;52.90;;;;;;5017422;28;20048;-57
2024/02/04 03:11:59;;;;;;;5.63;3.00;;;13.40;52.90;;;;;;5010237;28;20127;-57
2024/02/04 03:14:27;;;;;;;9.98;4.43;;;13.40;52.90;;;;;;5012199;28;20061;-56
2024/02/04 03:16:57;;;;;;;12.60;5.85;;;13.40;53.00;;;;;;5011029;28;20060;-57
2024/02/04 03:19:26;;;;;;;10.98;5.35;;;13.40;52.90;;;;;;5015925;28;20064;-57
2024/02/04 03:21:54;;;;;;;13.48;4.85;;;13.50;53.00;;;;;;5014850;28;20099;-58
2024/02/04 03:24:23;;;;;;;10.25;5.22;;;13.50;53.00;;;;;;5014642;28;20053;-57
2024/02/04 03:26:51;;;;;;;9.18;5.15;;;13.50;53.00;;;;;;5016196;28;20474;-56
2024/02/04 03:29:20;;;;;;;9.43;4.50;;;13.50;53.00;;;;;;5004528;28;20489;-56
2024/02/04 03:31:49;;;;;;;9.50;4.50;;;13.50;53.00;;;;;;5010667;28;20059;-57
2024/02/04 03:34:19;;;;;;;10.07;4.35;;;13.50;53.00;;;;;;5009965;28;20079;-54
2024/02/04 03:36:47;;;;;;;15.13;5.80;;;13.50;53.60;;;;;;5004656;28;20049;-56
2024/02/04 03:39:16;;;;;;;28.85;8.40;;;13.60;53.00;;;;;;5000469;28;20907;-57
2024/02/04 03:41:45;;;;;;;12.90;5.43;;;13.60;53.00;;;;;;4992708;28;20059;-60
2024/02/04 03:44:13;;;;;;;11.68;5.95;;;13.70;52.90;;;;;;5022154;28;20063;-57
2024/02/04 03:46:41;;;;;;;42.15;14.20;;;13.70;52.90;;;;;;5036736;28;20056;-57
2024/02/04 03:49:10;;;;;;;11.07;6.00;;;13.80;52.80;;;;;;5039750;28;20140;-58
2024/02/04 03:51:41;;;;;;;21.27;8.23;;;13.80;52.80;;;;;;5027902;28;20053;-66
2024/02/04 03:54:09;;;;;;;35.95;11.65;;;13.90;52.80;;;;;;5029447;28;20091;-58
2024/02/04 03:56:38;;;;;;;24.00;9.13;;;13.90;52.80;;;;;;4976647;28;20053;-55
2024/02/04 03:59:10;;;;;;;12.18;5.57;;;13.90;52.70;;;;;;4971829;28;20328;-56
2024/02/04 04:01:39;;;;;;;19.75;6.60;;;14.00;52.70;;;;;;4994016;28;20572;-57
2024/02/04 04:04:10;;;;;;;11.40;6.28;;;14.10;52.60;;;;;;4972206;28;20465;-56
2024/02/04 04:06:40;;;;;;;9.00;4.28;;;14.10;52.50;;;;;;4974410;28;20056;-57
2024/02/04 04:09:08;;;;;;;12.77;5.50;;;14.20;52.50;;;;;;4974905;28;20454;-57
2024/02/04 04:11:39;;;;;;;12.10;6.07;;;14.20;52.30;;;;;;4924391;28;20167;-56
2024/02/04 04:14:09;;;;;;;39.97;5.47;;;14.30;52.30;;;;;;4928357;28;20369;-54
2024/02/04 04:16:38;;;;;;;10.20;4.18;;;14.30;52.20;;;;;;4923762;28;20123;-55
2024/02/04 04:19:07;;;;;;;9.00;3.50;;;14.30;52.20;;;;;;4938064;28;20406;-55
2024/02/04 04:21:40;;;;;;;5.70;3.60;;;14.40;52.20;;;;;;4917524;28;20347;-55
2024/02/04 04:24:12;;;;;;;13.15;3.70;;;14.40;52.20;;;;;;4932208;28;20282;-55
2024/02/04 04:26:42;;;;;;;9.93;3.63;;;14.40;52.20;;;;;;4932506;28;20049;-54
2024/02/04 04:29:11;;;;;;;6.03;3.28;;;14.50;52.30;;;;;;4938111;28;20533;-56
2024/02/04 04:31:40;;;;;;;5.63;2.85;;;14.40;52.00;;;;;;4924785;28;20430;-52
2024/02/04 04:34:10;;;;;;;7.80;3.15;;;14.40;52.00;;;;;;4942204;28;20544;-55
2024/02/04 04:36:40;;;;;;;6.65;3.65;;;14.40;52.00;;;;;;4941601;28;20045;-54
2024/02/04 04:39:10;;;;;;;10.32;4.65;;;14.20;52.10;;;;;;4936311;28;20396;-55
2024/02/04 04:41:39;;;;;;;6.95;3.90;;;14.30;52.20;;;;;;4948041;28;20044;-56
2024/02/04 04:44:08;;;;;;;6.90;3.70;;;14.30;52.30;;;;;;4942715;28;20053;-55
2024/02/04 04:46:40;;;;;;;6.82;3.90;;;14.20;52.20;;;;;;4932758;28;20057;-54
2024/02/04 04:49:09;;;;;;;10.68;4.22;;;14.30;52.30;;;;;;4940752;28;20330;-53
2024/02/04 04:51:37;;;;;;;7.65;3.85;;;14.20;52.30;;;;;;4940816;28;20150;-55
2024/02/04 04:54:06;;;;;;;10.40;5.20;;;14.20;52.40;;;;;;4945889;28;20338;-56
2024/02/04 04:56:42;;;;;;;10.02;3.90;;;14.20;52.40;;;;;;4941874;28;20720;-66
2024/02/04 04:59:11;;;;;;;12.48;4.70;;;14.10;52.60;;;;;;4942005;28;20162;-68
2024/02/04 05:01:47;;;;;;;8.18;4.20;;;14.10;52.60;;;;;;4950418;28;20057;-55
2024/02/04 05:04:18;;;;;;;9.82;3.88;;;14.10;52.80;;;;;;4945761;28;20392;-55
2024/02/04 05:06:47;;;;;;;15.50;5.07;;;13.90;52.70;;;;;;4938560;28;20076;-56
2024/02/04 05:09:16;;;;;;;8.95;4.60;;;13.80;52.90;;;;;;4921999;28;20053;-54
2024/02/04 05:11:46;;;;;;;13.95;5.22;;;13.70;53.10;;;;;;4928161;28;21150;-56
2024/02/04 05:14:16;;;;;;;13.38;5.35;;;13.60;53.20;;;;;;4939690;28;20690;-55
2024/02/04 05:16:45;;;;;;;13.30;5.97;;;13.60;53.30;;;;;;4948557;28;20724;-55
2024/02/04 05:19:14;;;;;;;8.90;4.13;;;13.50;53.50;;;;;;4935456;28;20069;-56
2024/02/04 05:21:43;;;;;;;13.15;4.22;;;13.50;53.60;;;;;;4933329;28;20274;-56
2024/02/04 05:24:13;;;;;;;11.68;3.75;;;13.50;53.60;;;;;;4932915;28;20823;-52
2024/02/04 05:26:42;;;;;;;9.52;4.82;;;13.50;53.80;;;;;;4951316;28;20045;-54
2024/02/04 05:29:11;;;;;;;12.55;4.03;;;13.50;53.80;;;;;;4932614;28;20188;-54
2024/02/04 05:31:42;;;;;;;7.95;3.97;;;13.60;54.10;;;;;;4949212;28;20060;-55
2024/02/04 05:34:13;;;;;;;7.20;3.65;;;13.60;53.80;;;;;;4917477;28;20118;-54
2024/02/04 05:36:43;;;;;;;7.72;3.25;;;13.70;53.70;;;;;;4916209;28;20430;-56
2024/02/04 05:39:12;;;;;;;11.38;4.15;;;13.70;53.70;;;;;;4928660;28;20056;-58
2024/02/04 05:41:43;;;;;;;7.82;3.70;;;13.80;53.70;;;;;;4921432;28;20507;-56
2024/02/04 05:44:14;;;;;;;13.73;3.65;;;13.80;53.60;;;;;;4942835;28;20160;-56
2024/02/04 05:46:45;;;;;;;9.07;4.22;;;13.80;53.70;;;;;;4939302;28;20206;-56
2024/02/04 05:49:15;;;;;;;11.98;4.60;;;13.80;53.70;;;;;;4933109;28;20542;-54
2024/02/04 05:51:45;;;;;;;16.25;5.40;;;13.80;53.70;;;;;;4938527;28;20670;-54
2024/02/04 05:54:14;;;;;;;19.48;7.45;;;13.70;53.80;;;;;;4931497;28;20315;-56
2024/02/04 05:56:43;;;;;;;15.95;6.80;;;13.70;53.90;;;;;;4948983;28;20053;-56
2024/02/04 05:59:13;;;;;;;12.45;5.75;;;13.70;54.00;;;;;;4948012;28;20053;-58
2024/02/04 06:01:42;;;;;;;16.88;6.45;;;13.70;54.10;;;;;;4943784;28;20279;-56
2024/02/04 06:04:12;;;;;;;22.48;5.82;;;13.60;54.20;;;;;;4940133;28;20315;-66
2024/02/04 06:06:42;;;;;;;12.77;5.47;;;13.60;54.20;;;;;;4926373;28;20080;-55
2024/02/04 06:09:12;;;;;;;19.77;5.75;;;13.60;54.40;;;;;;4939481;28;20431;-58
2024/02/04 06:11:41;;;;;;;24.00;5.57;;;13.60;54.40;;;;;;4941013;28;20049;-55
2024/02/04 06:14:10;;;;;;;15.57;4.60;;;13.50;54.40;;;;;;4935892;28;20151;-57
2024/02/04 06:16:40;;;;;;;8.48;4.47;;;13.50;54.50;;;;;;4945390;28;20501;-57
2024/02/04 06:19:09;;;;;;;11.10;4.22;;;13.40;54.60;;;;;;4945154;28;20157;-58
2024/02/04 06:21:38;;;;;;;9.45;4.43;;;13.40;54.70;;;;;;4926191;28;20678;-54
2024/02/04 06:24:09;;;;;;;6.93;3.38;;;13.40;54.80;;;;;;4913447;28;20053;-55
2024/02/04 06:26:39;;;;;;;11.18;4.13;;;13.40;54.90;;;;;;4915808;28;20437;-58
2024/02/04 06:29:08;;;;;;;16.25;4.72;;;13.40;54.80;;;;;;4954225;28;20445;-57
2024/02/04 06:31:37;;;;;;;11.75;5.03;;;13.40;54.90;;;;;;4952380;28;20571;-56
2024/02/04 06:34:07;;;;;;;17.80;7.13;;;13.40;55.00;;;;;;4940833;28;20053;-58
2024/02/04 06:36:37;;;;;;;18.30;7.07;;;13.50;55.00;;;;;;4945114;28;20410;-56
2024/02/04 06:39:08;;;;;;;10.40;5.60;;;13.50;55.00;;;;;;4951996;28;20437;-56
2024/02/04 06:41:37;;;;;;;13.40;5.93;;;13.50;55.00;;;;;;4951264;28;20652;-55
2024/02/04 06:44:06;;;;;;;18.58;5.97;;;13.50;55.00;;;;;;4959610;28;20132;-56
2024/02/04 06:46:35;;;;;;;17.02;6.65;;;13.60;55.00;;;;;;4955599;28;20518;-57
2024/02/04 06:49:04;;;;;;;18.75;6.32;;;13.60;54.90;;;;;;4953177;28;20053;-67
2024/02/04 06:51:34;;;;;;;11.45;4.82;;;13.50;54.90;;;;;;4963977;28;20076;-58
2024/02/04 06:54:03;;;;;;;16.08;5.05;;;13.50;55.10;;;;;;4980900;28;20049;-60
2024/02/04 06:56:32;;;;;;;10.45;4.53;;;13.40;55.20;;;;;;4956004;28;20340;-59
2024/02/04 06:59:01;;;;;;;10.57;3.85;;;13.30;55.30;;;;;;4937991;28;20050;-59
2024/02/04 07:01:30;;;;;;;11.80;4.38;;;13.20;55.40;;;;;;4955510;28;20060;-59
2024/02/04 07:03:59;;;;;;;10.27;4.50;;;13.10;55.60;;;;;;4955943;28;20417;-59
2024/02/04 07:06:27;;;;;;;10.60;4.85;;;13.00;55.80;;;;;;4955079;28;20437;-59
2024/02/04 07:08:58;;;;;;;10.00;4.93;;;13.00;56.00;;;;;;4972935;28;20765;-59
2024/02/04 07:11:27;;;;;;;11.73;5.05;;;13.00;56.20;;;;;;4972229;28;20135;-61
2024/02/04 07:14:00;;;;;;;11.55;4.88;;;13.10;56.30;;;;;;4973034;28;20071;-58
2024/02/04 07:16:29;;;;;;;7.22;4.00;;;13.10;56.30;;;;;;4951396;28;20118;-58
2024/02/04 07:18:57;;;;;;;9.65;4.32;;;13.10;56.30;;;;;;4965197;28;20064;-59
2024/02/04 07:21:26;;;;;;;13.25;5.15;;;13.10;56.50;;;;;;4989780;28;20502;-59
2024/02/04 07:23:55;;;;;;;7.47;4.07;;;13.10;56.50;;;;;;4985614;28;20156;-59
2024/02/04 07:26:24;;;;;;;12.68;4.93;;;13.10;56.60;;;;;;4970573;28;20048;-59
2024/02/04 07:28:53;;;;;;;13.07;4.55;;;13.10;56.70;;;;;;4988306;28;20114;-59
2024/02/04 07:31:22;;;;;;;9.43;4.43;;;13.10;57.20;;;;;;4986607;28;20049;-59
2024/02/04 07:33:50;;;;;;;12.05;4.47;;;13.10;56.60;;;;;;4989726;28;20514;-60
2024/02/04 07:36:20;;;;;;;12.98;5.18;;;13.10;56.70;;;;;;4991696;28;20538;-59
2024/02/04 07:38:48;;;;;;;37.00;12.95;;;13.10;56.80;;;;;;4985096;28;20056;-60
2024/02/04 07:41:18;;;;;;;15.65;5.13;;;13.20;56.90;;;;;;4984559;28;20288;-59
2024/02/04 07:43:48;;;;;;;14.00;5.60;;;13.40;57.20;;;;;;4985492;28;20138;-62
2024/02/04 07:46:17;;;;;;;13.38;5.80;;;13.30;56.90;;;;;;4984645;28;20075;-60
2024/02/04 07:48:46;;;;;;;19.88;7.93;;;13.30;56.80;;;;;;4978749;28;22033;-59
2024/02/04 07:51:15;;;;;;;18.60;5.53;;;13.40;56.80;;;;;;4988390;28;20242;-58
2024/02/04 07:53:44;;;;;;;18.40;5.55;;;13.50;56.80;;;;;;4986792;28;20713;-58
2024/02/04 07:56:12;;;;;;;16.55;6.32;;;13.50;56.80;;;;;;4966431;28;20298;-56
2024/02/04 07:58:41;;;;;;;14.90;6.07;;;13.50;56.80;;;;;;4960288;28;20069;-56
2024/02/04 08:01:16;;;;;;;26.13;7.60;;;13.50;56.80;;;;;;4956919;28;21660;-55
2024/02/04 08:03:47;;;;;;;28.58;8.90;;;13.60;56.90;;;;;;4971864;28;20049;-56
2024/02/04 08:06:17;;;;;;;16.13;6.88;;;13.70;56.80;;;;;;4971133;28;20272;-56
2024/02/04 08:08:47;;;;;;;19.52;7.25;;;13.70;56.70;;;;;;4979194;28;20069;-55
2024/02/04 08:11:19;;;;;;;23.02;7.97;;;13.80;56.70;;;;;;4988344;28;20128;-53
2024/02/04 08:13:48;;;;;;;15.10;6.60;;;13.80;56.90;;;;;;4993922;28;20052;-55
2024/02/04 08:16:17;;;;;;;15.93;6.97;;;13.80;56.90;;;;;;4994141;28;20484;-57
2024/02/04 08:18:46;;;;;;;35.15;7.22;;;13.90;56.80;;;;;;4988038;28;20061;-55
2024/02/04 08:21:15;;;;;;;19.83;7.15;;;13.90;56.80;;;;;;4980289;28;20666;-54
2024/02/04 08:23:44;;;;;;;12.23;5.47;;;13.90;56.80;;;;;;4918474;28;20841;-55
2024/02/04 08:26:14;;;;;;;13.35;6.57;;;13.90;56.80;;;;;;4939290;28;20206;-52
2024/02/04 08:28:43;;;;;;;18.85;6.68;;;14.00;56.80;;;;;;5026240;28;20044;-56
2024/02/04 08:31:11;;;;;;;14.98;5.93;;;14.10;56.80;;;;;;5034789;28;20320;-56
2024/02/04 08:33:41;;;;;;;17.25;8.13;;;14.10;56.90;;;;;;5033348;28;20058;-54
2024/02/04 08:36:10;;;;;;;16.38;7.78;;;14.10;57.00;;;;;;5015624;28;20057;-59
2024/02/04 08:38:39;;;;;;;14.95;6.60;;;14.10;57.00;;;;;;4997410;28;20323;-57
2024/02/04 08:41:08;;;;;;;35.00;8.00;;;14.20;57.00;;;;;;4989742;28;20126;-56
2024/02/04 08:43:36;;;;;;;21.38;7.55;;;14.20;56.90;;;;;;4994381;28;20754;-57
2024/02/04 08:46:06;;;;;;;15.73;6.72;;;14.30;56.90;;;;;;5009256;28;20115;-56
2024/02/04 08:48:42;;;;;;;18.70;5.43;;;14.40;57.00;;;;;;5009635;28;20161;-54
2024/02/04 08:51:16;;;;;;;12.18;6.35;;;14.40;56.90;;;;;;4992291;28;20049;-55
2024/02/04 08:53:45;;;;;;;22.35;7.53;;;14.40;57.00;;;;;;4999136;28;20156;-56
2024/02/04 08:56:14;;;;;;;16.27;6.85;;;14.50;57.00;;;;;;5012844;28;20053;-53
2024/02/04 08:58:43;;;;;;;17.88;7.00;;;14.60;57.10;;;;;;5010538;28;20088;-53
2024/02/04 09:01:11;;;;;;;23.85;7.38;;;14.60;56.90;;;;;;5012511;28;20123;-59
2024/02/04 09:03:39;;;;;;;17.70;6.43;;;14.70;56.90;;;;;;5004981;28;20191;-61
2024/02/04 09:06:09;;;;;;;14.68;7.03;;;14.70;57.00;;;;;;5011561;28;20065;-58
2024/02/04 09:08:38;;;;;;;16.73;7.28;;;14.70;56.90;;;;;;4988971;28;20076;-58
2024/02/04 09:11:06;;;;;;;17.83;8.32;;;14.80;57.10;;;;;;5001561;28;20064;-58
2024/02/04 09:13:36;;;;;;;23.85;7.95;;;14.90;57.80;;;;;;4982154;28;20091;-56
2024/02/04 09:16:05;;;;;;;14.43;7.45;;;15.10;57.10;;;;;;4999242;28;20521;-58
2024/02/04 09:18:34;;;;;;;16.00;6.22;;;15.30;57.10;;;;;;4992487;28;20074;-57
2024/02/04 09:21:03;;;;;;;12.38;7.10;;;15.40;56.90;;;;;;4994153;28;20063;-54
2024/02/04 09:23:35;;;;;;;18.73;7.28;;;15.50;56.80;;;;;;4979400;28;20037;-55
2024/02/04 09:26:06;;;;;;;18.58;8.15;;;15.60;56.60;;;;;;5002107;28;20057;-52
2024/02/04 09:28:35;;;;;;;38.08;11.15;;;15.60;56.50;;;;;;5007356;28;20378;-54
2024/02/04 09:31:03;;;;;;;27.98;9.68;;;15.50;56.30;;;;;;4997507;28;20075;-55
2024/02/04 09:33:33;;;;;;;19.13;7.00;;;15.40;56.40;;;;;;4999602;28;20516;-54
2024/02/04 09:36:02;;;;;;;20.77;7.65;;;15.40;56.40;;;;;;5013900;28;20059;-63
2024/02/04 09:38:30;;;;;;;23.42;7.03;;;15.20;56.40;;;;;;5018237;28;20082;-55
2024/02/04 09:41:03;;;;;;;17.45;6.78;;;15.00;56.30;;;;;;5014995;28;20067;-55
2024/02/04 09:43:33;;;;;;;16.38;6.15;;;15.00;56.60;;;;;;4993684;28;20099;-70
2024/02/04 09:46:02;;;;;;;13.55;6.90;;;15.00;56.80;;;;;;4989680;28;20163;-51
2024/02/04 09:48:33;;;;;;;19.08;6.22;;;15.10;56.80;;;;;;4976085;28;20061;-56
2024/02/04 09:51:04;;;;;;;13.73;6.60;;;15.30;56.80;;;;;;4974137;28;20063;-55
2024/02/04 09:53:37;;;;;;;16.05;6.32;;;15.60;56.70;;;;;;4975304;28;20170;-51
2024/02/04 09:56:10;;;;;;;21.30;5.78;;;15.90;56.40;;;;;;4969756;28;20049;-55
2024/02/04 09:58:48;;;;;;;11.40;4.38;;;16.30;56.10;;;;;;4966927;28;20451;-55
2024/02/04 10:01:18;;;;;;;10.00;4.65;;;16.60;55.60;;;;;;4981505;28;20598;-56
2024/02/04 10:03:49;;;;;;;11.77;4.97;;;16.80;55.30;;;;;;4994183;28;20735;-54
2024/02/04 10:06:17;;;;;;;11.18;4.78;;;16.90;55.00;;;;;;4994850;28;20667;-53
2024/02/04 10:08:47;;;;;;;14.25;4.68;;;17.10;55.00;;;;;;4991928;28;20475;-55
2024/02/04 10:11:18;;;;;;;10.60;5.00;;;17.20;54.90;;;;;;4988122;28;20069;-52
2024/02/04 10:13:48;;;;;;;19.67;8.05;;;17.40;54.60;;;;;;4995300;28;20468;-53
2024/02/04 10:16:17;;;;;;;16.65;7.07;;;17.40;54.50;;;;;;5013443;28;20061;-57
2024/02/04 10:18:47;;;;;;;9.05;4.40;;;17.50;54.40;;;;;;4989547;28;20053;-54
2024/02/04 10:21:18;;;;;;;20.23;6.35;;;17.40;54.20;;;;;;5011724;28;20119;-54
2024/02/04 10:23:47;;;;;;;13.02;4.40;;;17.40;54.30;;;;;;5036310;28;20068;-57
2024/02/04 10:26:17;;;;;;;15.38;5.88;;;17.40;54.40;;;;;;5045348;28;20057;-56
2024/02/04 10:28:47;;;;;;;15.85;6.38;;;17.50;54.40;;;;;;5031126;28;20064;-57
2024/02/04 10:31:17;;;;;;;16.42;5.15;;;17.60;54.40;;;;;;5030199;28;20515;-55
2024/02/04 10:33:45;;;;;;;16.35;6.93;;;17.60;54.40;;;;;;4999594;28;20052;-54
2024/02/04 10:36:14;;;;;;;13.63;6.18;;;17.70;54.30;;;;;;5011924;28;20088;-56
2024/02/04 10:38:42;;;;;;;18.75;7.80;;;17.80;54.10;;;;;;5007387;28;20060;-58
2024/02/04 10:41:15;;;;;;;19.63;7.60;;;17.70;54.00;;;;;;5015678;28;20567;-54
2024/02/04 10:43:46;;;;;;;15.98;7.40;;;17.80;54.20;;;;;;5010884;28;20060;-55
2024/02/04 10:46:19;;;;;;;13.68;6.78;;;17.80;54.10;;;;;;4991499;28;20049;-55
2024/02/04 10:48:55;;;;;;;21.02;6.88;;;17.90;54.10;;;;;;5006097;28;20641;-53
2024/02/04 10:51:27;;;;;;;12.07;6.57;;;18.00;53.90;;;;;;5027330;28;20154;-54
2024/02/04 10:53:57;;;;;;;15.88;6.10;;;18.10;53.90;;;;;;5013320;28;20041;-56
2024/02/04 10:56:33;;;;;;;20.60;6.40;;;18.20;53.80;;;;;;5016918;28;20334;-52
2024/02/04 10:59:04;;;;;;;16.52;5.72;;;18.30;53.90;;;;;;5015008;28;20107;-56
2024/02/04 11:01:34;;;;;;;17.70;5.95;;;18.50;53.80;;;;;;5021545;28;20063;-56
2024/02/04 11:04:05;;;;;;;15.27;6.07;;;18.60;53.60;;;;;;5029233;28;20060;-56
2024/02/04 11:06:34;;;;;;;21.17;8.55;;;18.70;53.60;;;;;;5039551;28;20050;-56
2024/02/04 11:09:03;;;;;;;17.33;6.50;;;18.70;53.40;;;;;;5038913;28;20064;-55
2024/02/04 11:11:33;;;;;;;12.93;6.22;;;18.80;53.40;;;;;;4958432;28;20060;-55
2024/02/04 11:14:12;;;;;;;12.82;6.13;;;18.90;53.30;;;;;;4937226;28;20084;-55
2024/02/04 11:17:07;;;;;;;10.45;5.97;;;19.00;53.10;;;;;;4925855;28;20056;-55
2024/02/04 11:19:49;;;;;;;14.65;5.22;;;19.20;53.00;;;;;;4935067;28;20156;-57
2024/02/04 11:22:39;;;;;;;20.50;8.30;;;19.30;52.80;;;;;;4942290;28;20056;-52
2024/02/04 11:25:25;;;;;;;15.57;6.35;;;19.50;52.60;;;;;;4941844;28;20358;-56
2024/02/04 11:27:56;;;;;;;20.33;6.35;;;19.60;52.40;;;;;;4940886;28;20303;-56
2024/02/04 11:30:27;;;;;;;13.00;5.72;;;19.70;52.30;;;;;;4938732;28;20268;-54
2024/02/04 11:33:01;;;;;;;15.18;6.70;;;19.70;52.20;;;;;;4933401;28;20040;-56
2024/02/04 11:35:32;;;;;;;13.80;6.30;;;19.80;52.10;;;;;;4928619;28;20140;-53
2024/02/04 11:38:01;;;;;;;22.25;6.03;;;19.90;52.10;;;;;;4945609;28;20218;-54
2024/02/04 11:40:37;;;;;;;16.55;6.43;;;19.90;51.80;;;;;;4931273;28;20246;-53
2024/02/04 11:43:08;;;;;;;11.30;6.00;;;19.90;51.70;;;;;;4928406;28;20081;-55
2024/02/04 11:45:40;;;;;;;22.40;5.80;;;20.00;51.60;;;;;;4933283;28;20380;-56
2024/02/04 11:48:10;;;;;;;15.35;6.50;;;20.00;51.60;;;;;;4937221;28;20837;-53
2024/02/04 11:50:41;;;;;;;21.90;7.13;;;20.00;51.40;;;;;;4942822;28;20400;-52
2024/02/04 11:53:11;;;;;;;16.70;5.63;;;20.10;51.40;;;;;;4933012;28;20052;-55
2024/02/04 11:55:41;;;;;;;21.50;6.85;;;20.20;51.40;;;;;;4936818;28;20049;-54
2024/02/04 11:58:13;;;;;;;11.32;5.65;;;20.20;51.20;;;;;;4932537;28;20578;-53
2024/02/04 12:00:46;;;;;;;15.05;5.93;;;20.30;51.20;;;;;;4932753;28;20049;-55
2024/02/04 12:03:16;;;;;;;15.15;6.53;;;20.40;50.90;;;;;;4922090;28;20041;-54
2024/02/04 12:05:45;;;;;;;21.83;6.72;;;20.40;50.80;;;;;;4916290;28;20049;-53
2024/02/04 12:08:14;;;;;;;16.90;4.57;;;20.40;50.70;;;;;;4944641;28;20737;-55
2024/02/04 12:10:44;;;;;;;15.30;4.55;;;20.40;50.70;;;;;;4951136;28;20247;-54
2024/02/04 12:13:13;;;;;;;10.55;3.90;;;20.30;50.40;;;;;;4945823;28;20802;-54
2024/02/04 12:15:44;;;;;;;10.77;4.10;;;20.30;50.50;;;;;;4961587;28;20426;-54
2024/02/04 12:18:14;;;;;;;18.40;3.45;;;20.40;50.50;;;;;;4943597;28;20130;-54
2024/02/04 12:20:43;;;;;;;15.57;3.45;;;20.40;50.30;;;;;;4937568;28;20454;-54
2024/02/04 12:23:12;;;;;;;12.65;4.13;;;20.50;50.20;;;;;;4931218;28;20255;-55
2024/02/04 12:25:40;;;;;;;12.02;3.00;;;20.50;50.10;;;;;;4944827;28;20068;-53
2024/02/04 12:28:12;;;;;;;14.38;3.97;;;20.60;49.90;;;;;;4932463;28;20399;-55
2024/02/04 12:30:40;;;;;;;8.48;2.38;;;20.60;50.50;;;;;;4945164;28;20554;-54
2024/02/04 12:33:11;;;;;;;11.07;3.22;;;20.50;49.70;;;;;;4938826;28;20180;-53
2024/02/04 12:35:41;;;;;;;10.00;3.17;;;20.40;49.60;;;;;;4940078;28;20187;-53
2024/02/04 12:38:09;;;;;;;16.33;3.60;;;20.30;49.60;;;;;;4943155;28;20535;-55
2024/02/04 12:40:39;;;;;;;11.75;4.13;;;20.30;50.20;;;;;;4946236;28;20343;-55
2024/02/04 12:43:11;;;;;;;18.80;5.03;;;20.20;50.40;;;;;;4933518;28;20045;-55
2024/02/04 12:45:40;;;;;;;12.75;3.40;;;20.20;49.50;;;;;;4939963;28;20219;-54
2024/02/04 12:48:10;;;;;;;10.70;3.90;;;20.20;49.50;;;;;;4914295;28;20332;-54
2024/02/04 12:50:39;;;;;;;17.48;3.53;;;20.10;49.60;;;;;;4927168;28;20327;-54
2024/02/04 12:53:11;;;;;;;13.13;3.17;;;20.00;49.40;;;;;;4916680;28;20049;-53